sensor_id;sensor_type;location;lat;lon;timestamp;P1;durP1;ratioP1;P2;durP2;ratioP2
24216;SDS011;12356;49.386;8.688;2023-04-06T00:00:02;18.98;;;9.73;;
24216;SDS011;12356;49.386;8.688;2023-04-06T00:02:35;16.73;;;9.93;;
24216;SDS011;12356;49.386;8.688;2023-04-06T00:05:06;16.88;;;10.75;;
24216;SDS011;12356;49.386;8.688;2023-04-06T00:07:37;18.95;;;10.25;;
24216;SDS011;12356;49.386;8.688;2023-04-06T00:10:07;17.13;;;10.30;;
24216;SDS011;12356;49.386;8.688;2023-04-06T00:12:38;17.60;;;10.18;;
24216;SDS011;12356;49.386;8.688;2023-04-06T00:15:09;20.40;;;10.43;;
24216;SDS011;12356;49.386;8.688;2023-04-06T00:17:40;19.20;;;10.55;;
24216;SDS011;12356;49.386;8.688;2023-04-06T00:20:11;17.48;;;10.52;;
24216;SDS011;12356;49.386;8.688;2023-04-06T00:22:42;17.88;;;10.55;;
24216;SDS011;12356;49.386;8.688;2023-04-06T00:25:12;20.30;;;11.73;;
24216;SDS011;12356;49.386;8.688;2023-04-06T00:27:45;19.70;;;11.20;;
24216;SDS011;12356;49.386;8.688;2023-04-06T00:30:15;20.38;;;11.50;;
24216;SDS011;12356;49.386;8.688;2023-04-06T00:32:46;19.15;;;11.32;;
24216;SDS011;12356;49.386;8.688;2023-04-06T00:35:16;22.08;;;11.70;;
24216;SDS011;12356;49.386;8.688;2023-04-06T00:37:47;21.10;;;12.40;;
24216;SDS011;12356;49.386;8.688;2023-04-06T00:40:18;21.45;;;11.65;;
24216;SDS011;12356;49.386;8.688;2023-04-06T00:42:49;18.73;;;11.75;;
24216;SDS011;12356;49.386;8.688;2023-04-06T00:45:19;25.88;;;12.55;;
24216;SDS011;12356;49.386;8.688;2023-04-06T00:47:50;23.17;;;12.75;;
24216;SDS011;12356;49.386;8.688;2023-04-06T00:50:20;20.85;;;12.00;;
24216;SDS011;12356;49.386;8.688;2023-04-06T00:52:51;21.70;;;12.40;;
24216;SDS011;12356;49.386;8.688;2023-04-06T00:55:22;19.80;;;12.50;;
24216;SDS011;12356;49.386;8.688;2023-04-06T00:57:52;21.83;;;12.65;;
24216;SDS011;12356;49.386;8.688;2023-04-06T01:00:23;22.45;;;12.70;;
24216;SDS011;12356;49.386;8.688;2023-04-06T01:02:53;22.05;;;12.65;;
24216;SDS011;12356;49.386;8.688;2023-04-06T01:05:24;20.38;;;11.55;;
24216;SDS011;12356;49.386;8.688;2023-04-06T01:07:55;22.52;;;12.38;;
24216;SDS011;12356;49.386;8.688;2023-04-06T01:10:26;22.05;;;11.95;;
24216;SDS011;12356;49.386;8.688;2023-04-06T01:12:57;22.95;;;11.68;;
24216;SDS011;12356;49.386;8.688;2023-04-06T01:15:28;20.02;;;12.30;;
24216;SDS011;12356;49.386;8.688;2023-04-06T01:17:59;20.33;;;12.18;;
24216;SDS011;12356;49.386;8.688;2023-04-06T01:20:30;22.13;;;11.93;;
24216;SDS011;12356;49.386;8.688;2023-04-06T01:23:00;18.70;;;11.90;;
24216;SDS011;12356;49.386;8.688;2023-04-06T01:25:31;17.83;;;11.85;;
24216;SDS011;12356;49.386;8.688;2023-04-06T01:28:01;19.05;;;11.68;;
24216;SDS011;12356;49.386;8.688;2023-04-06T01:30:32;20.55;;;11.50;;
24216;SDS011;12356;49.386;8.688;2023-04-06T01:33:02;19.63;;;11.45;;
24216;SDS011;12356;49.386;8.688;2023-04-06T01:35:33;22.08;;;12.05;;
24216;SDS011;12356;49.386;8.688;2023-04-06T01:38:03;20.08;;;11.80;;
24216;SDS011;12356;49.386;8.688;2023-04-06T01:40:34;17.55;;;10.88;;
24216;SDS011;12356;49.386;8.688;2023-04-06T01:43:05;19.42;;;11.27;;
24216;SDS011;12356;49.386;8.688;2023-04-06T01:45:36;17.35;;;11.05;;
24216;SDS011;12356;49.386;8.688;2023-04-06T01:48:07;17.58;;;11.25;;
24216;SDS011;12356;49.386;8.688;2023-04-06T01:50:37;18.65;;;10.90;;
24216;SDS011;12356;49.386;8.688;2023-04-06T01:53:08;19.70;;;10.82;;
24216;SDS011;12356;49.386;8.688;2023-04-06T01:55:38;20.02;;;11.15;;
24216;SDS011;12356;49.386;8.688;2023-04-06T01:58:09;21.65;;;10.65;;
24216;SDS011;12356;49.386;8.688;2023-04-06T02:00:40;19.55;;;11.18;;
24216;SDS011;12356;49.386;8.688;2023-04-06T02:03:10;18.70;;;11.48;;
24216;SDS011;12356;49.386;8.688;2023-04-06T02:05:41;19.27;;;11.55;;
24216;SDS011;12356;49.386;8.688;2023-04-06T02:08:11;18.38;;;11.30;;
24216;SDS011;12356;49.386;8.688;2023-04-06T02:10:42;19.52;;;11.77;;
24216;SDS011;12356;49.386;8.688;2023-04-06T02:13:12;20.25;;;11.98;;
24216;SDS011;12356;49.386;8.688;2023-04-06T02:15:43;21.05;;;11.85;;
24216;SDS011;12356;49.386;8.688;2023-04-06T02:18:13;17.35;;;11.00;;
24216;SDS011;12356;49.386;8.688;2023-04-06T02:20:44;17.58;;;11.18;;
24216;SDS011;12356;49.386;8.688;2023-04-06T02:23:15;21.42;;;11.73;;
24216;SDS011;12356;49.386;8.688;2023-04-06T02:25:46;20.42;;;11.48;;
24216;SDS011;12356;49.386;8.688;2023-04-06T02:28:16;18.30;;;11.65;;
24216;SDS011;12356;49.386;8.688;2023-04-06T02:30:47;20.08;;;11.30;;
24216;SDS011;12356;49.386;8.688;2023-04-06T02:33:17;18.08;;;11.35;;
24216;SDS011;12356;49.386;8.688;2023-04-06T02:35:48;19.75;;;11.20;;
24216;SDS011;12356;49.386;8.688;2023-04-06T02:38:18;19.10;;;11.45;;
24216;SDS011;12356;49.386;8.688;2023-04-06T02:40:49;17.67;;;11.00;;
24216;SDS011;12356;49.386;8.688;2023-04-06T02:43:20;17.13;;;11.07;;
24216;SDS011;12356;49.386;8.688;2023-04-06T02:45:50;19.35;;;11.00;;
24216;SDS011;12356;49.386;8.688;2023-04-06T02:48:21;17.63;;;10.70;;
24216;SDS011;12356;49.386;8.688;2023-04-06T02:50:51;20.13;;;11.82;;
24216;SDS011;12356;49.386;8.688;2023-04-06T02:53:22;16.83;;;10.95;;
24216;SDS011;12356;49.386;8.688;2023-04-06T02:55:52;16.40;;;10.93;;
24216;SDS011;12356;49.386;8.688;2023-04-06T02:58:23;17.40;;;11.18;;
24216;SDS011;12356;49.386;8.688;2023-04-06T03:00:53;20.70;;;11.27;;
24216;SDS011;12356;49.386;8.688;2023-04-06T03:03:24;15.60;;;10.85;;
24216;SDS011;12356;49.386;8.688;2023-04-06T03:05:55;18.02;;;11.30;;
24216;SDS011;12356;49.386;8.688;2023-04-06T03:08:28;20.15;;;11.88;;
24216;SDS011;12356;49.386;8.688;2023-04-06T03:10:59;16.42;;;10.88;;
24216;SDS011;12356;49.386;8.688;2023-04-06T03:13:29;23.10;;;12.07;;
24216;SDS011;12356;49.386;8.688;2023-04-06T03:16:00;20.83;;;11.60;;
24216;SDS011;12356;49.386;8.688;2023-04-06T03:18:31;20.75;;;11.93;;
24216;SDS011;12356;49.386;8.688;2023-04-06T03:21:02;20.23;;;12.23;;
24216;SDS011;12356;49.386;8.688;2023-04-06T03:23:32;18.50;;;11.52;;
24216;SDS011;12356;49.386;8.688;2023-04-06T03:26:03;22.50;;;12.43;;
24216;SDS011;12356;49.386;8.688;2023-04-06T03:28:34;23.55;;;12.38;;
24216;SDS011;12356;49.386;8.688;2023-04-06T03:31:04;22.02;;;11.80;;
24216;SDS011;12356;49.386;8.688;2023-04-06T03:33:35;22.00;;;11.90;;
24216;SDS011;12356;49.386;8.688;2023-04-06T03:36:05;24.23;;;11.82;;
24216;SDS011;12356;49.386;8.688;2023-04-06T03:38:36;19.52;;;12.18;;
24216;SDS011;12356;49.386;8.688;2023-04-06T03:41:07;21.13;;;12.13;;
24216;SDS011;12356;49.386;8.688;2023-04-06T03:43:37;19.35;;;12.05;;
24216;SDS011;12356;49.386;8.688;2023-04-06T03:46:08;20.27;;;12.10;;
24216;SDS011;12356;49.386;8.688;2023-04-06T03:48:38;20.67;;;12.73;;
24216;SDS011;12356;49.386;8.688;2023-04-06T03:51:09;20.13;;;12.50;;
24216;SDS011;12356;49.386;8.688;2023-04-06T03:53:40;21.52;;;11.95;;
24216;SDS011;12356;49.386;8.688;2023-04-06T03:56:10;18.13;;;11.25;;
24216;SDS011;12356;49.386;8.688;2023-04-06T03:58:41;23.30;;;11.70;;
24216;SDS011;12356;49.386;8.688;2023-04-06T04:01:11;19.80;;;11.65;;
24216;SDS011;12356;49.386;8.688;2023-04-06T04:03:42;25.05;;;11.77;;
24216;SDS011;12356;49.386;8.688;2023-04-06T04:06:12;21.58;;;11.48;;
24216;SDS011;12356;49.386;8.688;2023-04-06T04:08:43;19.77;;;11.23;;
24216;SDS011;12356;49.386;8.688;2023-04-06T04:11:13;18.90;;;10.73;;
24216;SDS011;12356;49.386;8.688;2023-04-06T04:13:45;16.50;;;11.00;;
24216;SDS011;12356;49.386;8.688;2023-04-06T04:16:16;17.48;;;10.30;;
24216;SDS011;12356;49.386;8.688;2023-04-06T04:18:46;20.23;;;10.57;;
24216;SDS011;12356;49.386;8.688;2023-04-06T04:21:18;16.87;;;10.57;;
24216;SDS011;12356;49.386;8.688;2023-04-06T04:23:49;16.77;;;10.13;;
24216;SDS011;12356;49.386;8.688;2023-04-06T04:26:19;18.98;;;10.48;;
24216;SDS011;12356;49.386;8.688;2023-04-06T04:28:50;21.83;;;10.57;;
24216;SDS011;12356;49.386;8.688;2023-04-06T04:31:21;19.20;;;10.48;;
24216;SDS011;12356;49.386;8.688;2023-04-06T04:33:52;18.95;;;10.82;;
24216;SDS011;12356;49.386;8.688;2023-04-06T04:36:23;20.40;;;10.50;;
24216;SDS011;12356;49.386;8.688;2023-04-06T04:41:26;18.08;;;10.13;;
24216;SDS011;12356;49.386;8.688;2023-04-06T04:43:56;18.42;;;9.98;;
24216;SDS011;12356;49.386;8.688;2023-04-06T04:46:27;18.65;;;10.93;;
24216;SDS011;12356;49.386;8.688;2023-04-06T04:48:57;17.70;;;10.57;;
24216;SDS011;12356;49.386;8.688;2023-04-06T04:51:28;17.33;;;9.95;;
24216;SDS011;12356;49.386;8.688;2023-04-06T04:53:58;20.10;;;10.35;;
24216;SDS011;12356;49.386;8.688;2023-04-06T04:56:29;19.52;;;11.23;;
24216;SDS011;12356;49.386;8.688;2023-04-06T04:58:59;19.33;;;10.57;;
24216;SDS011;12356;49.386;8.688;2023-04-06T05:01:30;17.58;;;10.68;;
24216;SDS011;12356;49.386;8.688;2023-04-06T05:04:01;15.02;;;10.10;;
24216;SDS011;12356;49.386;8.688;2023-04-06T05:06:31;20.02;;;10.60;;
24216;SDS011;12356;49.386;8.688;2023-04-06T05:09:02;20.27;;;11.30;;
24216;SDS011;12356;49.386;8.688;2023-04-06T05:11:32;16.02;;;10.07;;
24216;SDS011;12356;49.386;8.688;2023-04-06T05:14:03;19.67;;;10.80;;
24216;SDS011;12356;49.386;8.688;2023-04-06T05:16:33;17.95;;;10.65;;
24216;SDS011;12356;49.386;8.688;2023-04-06T05:19:04;18.58;;;11.00;;
24216;SDS011;12356;49.386;8.688;2023-04-06T05:21:35;22.85;;;10.90;;
24216;SDS011;12356;49.386;8.688;2023-04-06T05:24:05;20.55;;;10.82;;
24216;SDS011;12356;49.386;8.688;2023-04-06T05:26:36;19.15;;;10.35;;
24216;SDS011;12356;49.386;8.688;2023-04-06T05:29:07;19.00;;;10.32;;
24216;SDS011;12356;49.386;8.688;2023-04-06T05:31:38;24.00;;;10.98;;
24216;SDS011;12356;49.386;8.688;2023-04-06T05:34:08;19.15;;;10.75;;
24216;SDS011;12356;49.386;8.688;2023-04-06T05:36:39;18.05;;;10.25;;
24216;SDS011;12356;49.386;8.688;2023-04-06T05:39:13;18.98;;;10.60;;
24216;SDS011;12356;49.386;8.688;2023-04-06T05:41:43;18.55;;;10.13;;
24216;SDS011;12356;49.386;8.688;2023-04-06T05:44:14;16.25;;;10.43;;
24216;SDS011;12356;49.386;8.688;2023-04-06T05:46:45;18.25;;;10.75;;
24216;SDS011;12356;49.386;8.688;2023-04-06T05:49:15;20.85;;;10.80;;
24216;SDS011;12356;49.386;8.688;2023-04-06T05:51:46;20.17;;;10.30;;
24216;SDS011;12356;49.386;8.688;2023-04-06T05:54:16;19.67;;;10.55;;
24216;SDS011;12356;49.386;8.688;2023-04-06T05:56:47;19.02;;;10.70;;
24216;SDS011;12356;49.386;8.688;2023-04-06T05:59:18;17.77;;;10.90;;
24216;SDS011;12356;49.386;8.688;2023-04-06T06:01:48;17.15;;;10.88;;
24216;SDS011;12356;49.386;8.688;2023-04-06T06:04:19;20.08;;;11.38;;
24216;SDS011;12356;49.386;8.688;2023-04-06T06:06:49;19.80;;;10.80;;
24216;SDS011;12356;49.386;8.688;2023-04-06T06:09:20;20.90;;;11.43;;
24216;SDS011;12356;49.386;8.688;2023-04-06T06:11:50;24.75;;;11.68;;
24216;SDS011;12356;49.386;8.688;2023-04-06T06:14:21;20.58;;;12.93;;
24216;SDS011;12356;49.386;8.688;2023-04-06T06:16:52;23.05;;;12.23;;
24216;SDS011;12356;49.386;8.688;2023-04-06T06:19:22;24.25;;;12.65;;
24216;SDS011;12356;49.386;8.688;2023-04-06T06:21:53;22.27;;;12.15;;
24216;SDS011;12356;49.386;8.688;2023-04-06T06:24:23;19.83;;;12.45;;
24216;SDS011;12356;49.386;8.688;2023-04-06T06:26:54;23.70;;;12.63;;
24216;SDS011;12356;49.386;8.688;2023-04-06T06:29:24;22.33;;;12.43;;
24216;SDS011;12356;49.386;8.688;2023-04-06T06:31:55;20.20;;;12.43;;
24216;SDS011;12356;49.386;8.688;2023-04-06T06:34:25;22.33;;;12.73;;
24216;SDS011;12356;49.386;8.688;2023-04-06T06:36:56;21.15;;;13.05;;
24216;SDS011;12356;49.386;8.688;2023-04-06T06:39:27;23.30;;;13.13;;
24216;SDS011;12356;49.386;8.688;2023-04-06T06:41:57;21.83;;;13.18;;
24216;SDS011;12356;49.386;8.688;2023-04-06T06:44:31;19.95;;;12.70;;
24216;SDS011;12356;49.386;8.688;2023-04-06T06:47:01;22.02;;;13.52;;
24216;SDS011;12356;49.386;8.688;2023-04-06T06:49:32;23.80;;;14.55;;
24216;SDS011;12356;49.386;8.688;2023-04-06T06:52:02;25.67;;;14.00;;
24216;SDS011;12356;49.386;8.688;2023-04-06T06:54:33;25.40;;;13.98;;
24216;SDS011;12356;49.386;8.688;2023-04-06T06:57:03;24.92;;;13.30;;
24216;SDS011;12356;49.386;8.688;2023-04-06T06:59:34;20.98;;;13.23;;
24216;SDS011;12356;49.386;8.688;2023-04-06T07:02:04;21.17;;;12.50;;
24216;SDS011;12356;49.386;8.688;2023-04-06T07:04:35;25.17;;;13.48;;
24216;SDS011;12356;49.386;8.688;2023-04-06T07:07:05;20.90;;;12.98;;
24216;SDS011;12356;49.386;8.688;2023-04-06T07:09:36;22.70;;;13.65;;
24216;SDS011;12356;49.386;8.688;2023-04-06T07:12:06;21.25;;;13.25;;
24216;SDS011;12356;49.386;8.688;2023-04-06T07:14:37;20.25;;;12.68;;
24216;SDS011;12356;49.386;8.688;2023-04-06T07:17:08;20.00;;;13.20;;
24216;SDS011;12356;49.386;8.688;2023-04-06T07:19:39;21.00;;;12.30;;
24216;SDS011;12356;49.386;8.688;2023-04-06T07:22:10;18.83;;;11.73;;
24216;SDS011;12356;49.386;8.688;2023-04-06T07:24:41;20.80;;;12.48;;
24216;SDS011;12356;49.386;8.688;2023-04-06T07:27:12;18.42;;;11.38;;
24216;SDS011;12356;49.386;8.688;2023-04-06T07:29:42;19.63;;;11.77;;
24216;SDS011;12356;49.386;8.688;2023-04-06T07:32:13;19.52;;;11.57;;
24216;SDS011;12356;49.386;8.688;2023-04-06T07:34:43;22.98;;;11.27;;
24216;SDS011;12356;49.386;8.688;2023-04-06T07:37:15;18.08;;;10.20;;
24216;SDS011;12356;49.386;8.688;2023-04-06T07:39:45;17.98;;;9.98;;
24216;SDS011;12356;49.386;8.688;2023-04-06T07:42:16;16.92;;;10.35;;
24216;SDS011;12356;49.386;8.688;2023-04-06T07:44:47;18.27;;;10.82;;
24216;SDS011;12356;49.386;8.688;2023-04-06T07:47:18;17.80;;;10.30;;
24216;SDS011;12356;49.386;8.688;2023-04-06T07:49:49;14.73;;;9.52;;
24216;SDS011;12356;49.386;8.688;2023-04-06T07:52:20;17.50;;;9.73;;
24216;SDS011;12356;49.386;8.688;2023-04-06T07:54:50;14.30;;;9.25;;
24216;SDS011;12356;49.386;8.688;2023-04-06T07:57:21;16.63;;;10.23;;
24216;SDS011;12356;49.386;8.688;2023-04-06T07:59:51;15.73;;;9.70;;
24216;SDS011;12356;49.386;8.688;2023-04-06T08:02:22;18.17;;;9.85;;
24216;SDS011;12356;49.386;8.688;2023-04-06T08:04:53;16.83;;;10.25;;
24216;SDS011;12356;49.386;8.688;2023-04-06T08:07:23;17.67;;;11.07;;
24216;SDS011;12356;49.386;8.688;2023-04-06T08:09:54;17.77;;;10.15;;
24216;SDS011;12356;49.386;8.688;2023-04-06T08:12:25;16.35;;;10.30;;
24216;SDS011;12356;49.386;8.688;2023-04-06T08:14:55;13.82;;;9.80;;
24216;SDS011;12356;49.386;8.688;2023-04-06T08:17:26;22.70;;;10.00;;
24216;SDS011;12356;49.386;8.688;2023-04-06T08:20:00;19.00;;;10.57;;
24216;SDS011;12356;49.386;8.688;2023-04-06T08:22:30;16.92;;;9.80;;
24216;SDS011;12356;49.386;8.688;2023-04-06T08:25:01;16.80;;;9.23;;
24216;SDS011;12356;49.386;8.688;2023-04-06T08:27:31;17.23;;;10.10;;
24216;SDS011;12356;49.386;8.688;2023-04-06T08:30:02;16.70;;;9.52;;
24216;SDS011;12356;49.386;8.688;2023-04-06T08:32:33;16.77;;;8.73;;
24216;SDS011;12356;49.386;8.688;2023-04-06T08:35:03;14.15;;;8.57;;
24216;SDS011;12356;49.386;8.688;2023-04-06T08:37:34;17.90;;;8.77;;
24216;SDS011;12356;49.386;8.688;2023-04-06T08:40:05;16.42;;;8.70;;
24216;SDS011;12356;49.386;8.688;2023-04-06T08:42:40;13.35;;;8.80;;
24216;SDS011;12356;49.386;8.688;2023-04-06T08:45:19;18.98;;;9.02;;
24216;SDS011;12356;49.386;8.688;2023-04-06T08:47:51;17.35;;;9.07;;
24216;SDS011;12356;49.386;8.688;2023-04-06T08:50:25;15.30;;;9.65;;
24216;SDS011;12356;49.386;8.688;2023-04-06T08:52:56;14.77;;;9.43;;
24216;SDS011;12356;49.386;8.688;2023-04-06T08:55:27;15.25;;;9.60;;
24216;SDS011;12356;49.386;8.688;2023-04-06T08:57:58;13.35;;;9.40;;
24216;SDS011;12356;49.386;8.688;2023-04-06T09:00:30;16.90;;;8.98;;
24216;SDS011;12356;49.386;8.688;2023-04-06T09:03:00;13.90;;;8.65;;
24216;SDS011;12356;49.386;8.688;2023-04-06T09:05:33;17.65;;;9.48;;
24216;SDS011;12356;49.386;8.688;2023-04-06T09:08:03;13.60;;;9.02;;
24216;SDS011;12356;49.386;8.688;2023-04-06T09:10:34;16.23;;;9.75;;
24216;SDS011;12356;49.386;8.688;2023-04-06T09:13:05;12.68;;;8.52;;
24216;SDS011;12356;49.386;8.688;2023-04-06T09:15:37;15.02;;;9.35;;
24216;SDS011;12356;49.386;8.688;2023-04-06T09:18:08;15.45;;;8.55;;
24216;SDS011;12356;49.386;8.688;2023-04-06T09:20:38;12.75;;;8.23;;
24216;SDS011;12356;49.386;8.688;2023-04-06T09:23:19;13.18;;;8.65;;
24216;SDS011;12356;49.386;8.688;2023-04-06T09:25:49;16.83;;;7.90;;
24216;SDS011;12356;49.386;8.688;2023-04-06T09:28:20;12.70;;;8.13;;
24216;SDS011;12356;49.386;8.688;2023-04-06T09:30:51;12.27;;;8.25;;
24216;SDS011;12356;49.386;8.688;2023-04-06T09:33:22;14.43;;;9.27;;
24216;SDS011;12356;49.386;8.688;2023-04-06T09:35:53;14.70;;;8.93;;
24216;SDS011;12356;49.386;8.688;2023-04-06T09:38:24;13.73;;;8.98;;
24216;SDS011;12356;49.386;8.688;2023-04-06T09:40:55;14.10;;;8.60;;
24216;SDS011;12356;49.386;8.688;2023-04-06T09:43:28;14.30;;;9.18;;
24216;SDS011;12356;49.386;8.688;2023-04-06T09:46:00;13.68;;;8.95;;
24216;SDS011;12356;49.386;8.688;2023-04-06T09:48:33;15.93;;;9.65;;
24216;SDS011;12356;49.386;8.688;2023-04-06T09:51:05;13.73;;;8.68;;
24216;SDS011;12356;49.386;8.688;2023-04-06T09:53:37;13.52;;;8.98;;
24216;SDS011;12356;49.386;8.688;2023-04-06T09:56:12;13.98;;;9.43;;
24216;SDS011;12356;49.386;8.688;2023-04-06T09:58:46;15.82;;;9.60;;
24216;SDS011;12356;49.386;8.688;2023-04-06T10:01:19;16.80;;;9.75;;
24216;SDS011;12356;49.386;8.688;2023-04-06T10:06:36;15.57;;;9.77;;
24216;SDS011;12356;49.386;8.688;2023-04-06T10:09:08;17.13;;;9.18;;
24216;SDS011;12356;49.386;8.688;2023-04-06T10:11:39;13.77;;;9.35;;
24216;SDS011;12356;49.386;8.688;2023-04-06T10:14:10;14.95;;;9.52;;
24216;SDS011;12356;49.386;8.688;2023-04-06T10:16:42;14.63;;;9.75;;
24216;SDS011;12356;49.386;8.688;2023-04-06T10:19:14;14.63;;;8.70;;
24216;SDS011;12356;49.386;8.688;2023-04-06T10:21:51;11.18;;;8.07;;
24216;SDS011;12356;49.386;8.688;2023-04-06T10:24:25;14.20;;;8.95;;
24216;SDS011;12356;49.386;8.688;2023-04-06T10:27:02;15.65;;;8.75;;
24216;SDS011;12356;49.386;8.688;2023-04-06T10:29:43;12.32;;;8.52;;
24216;SDS011;12356;49.386;8.688;2023-04-06T10:32:18;18.38;;;8.68;;
24216;SDS011;12356;49.386;8.688;2023-04-06T10:34:49;12.35;;;7.85;;
24216;SDS011;12356;49.386;8.688;2023-04-06T10:37:19;12.25;;;8.25;;
24216;SDS011;12356;49.386;8.688;2023-04-06T10:39:54;14.10;;;8.73;;
24216;SDS011;12356;49.386;8.688;2023-04-06T10:42:35;14.50;;;8.73;;
24216;SDS011;12356;49.386;8.688;2023-04-06T10:45:18;14.15;;;8.30;;
24216;SDS011;12356;49.386;8.688;2023-04-06T10:47:53;12.15;;;7.85;;
24216;SDS011;12356;49.386;8.688;2023-04-06T10:50:25;16.15;;;8.27;;
24216;SDS011;12356;49.386;8.688;2023-04-06T10:52:59;11.80;;;7.60;;
24216;SDS011;12356;49.386;8.688;2023-04-06T10:55:30;12.48;;;7.07;;
24216;SDS011;12356;49.386;8.688;2023-04-06T10:58:02;12.48;;;6.88;;
24216;SDS011;12356;49.386;8.688;2023-04-06T11:00:36;10.15;;;6.03;;
24216;SDS011;12356;49.386;8.688;2023-04-06T11:03:15;9.23;;;6.22;;
24216;SDS011;12356;49.386;8.688;2023-04-06T11:05:46;8.13;;;5.70;;
24216;SDS011;12356;49.386;8.688;2023-04-06T11:08:22;9.18;;;5.38;;
24216;SDS011;12356;49.386;8.688;2023-04-06T11:11:04;9.82;;;6.70;;
24216;SDS011;12356;49.386;8.688;2023-04-06T11:13:57;10.15;;;6.53;;
24216;SDS011;12356;49.386;8.688;2023-04-06T11:16:28;10.75;;;6.50;;
24216;SDS011;12356;49.386;8.688;2023-04-06T11:19:01;11.35;;;7.20;;
24216;SDS011;12356;49.386;8.688;2023-04-06T11:21:37;11.10;;;7.53;;
24216;SDS011;12356;49.386;8.688;2023-04-06T11:24:17;13.20;;;7.40;;
24216;SDS011;12356;49.386;8.688;2023-04-06T11:26:53;10.57;;;7.57;;
24216;SDS011;12356;49.386;8.688;2023-04-06T11:29:26;9.15;;;6.97;;
24216;SDS011;12356;49.386;8.688;2023-04-06T11:31:59;11.43;;;7.40;;
24216;SDS011;12356;49.386;8.688;2023-04-06T11:34:32;10.20;;;7.40;;
24216;SDS011;12356;49.386;8.688;2023-04-06T11:37:09;12.30;;;7.55;;
24216;SDS011;12356;49.386;8.688;2023-04-06T11:39:43;11.95;;;7.75;;
24216;SDS011;12356;49.386;8.688;2023-04-06T11:42:28;11.10;;;7.45;;
24216;SDS011;12356;49.386;8.688;2023-04-06T11:44:59;12.25;;;7.80;;
24216;SDS011;12356;49.386;8.688;2023-04-06T11:47:32;12.68;;;7.38;;
24216;SDS011;12356;49.386;8.688;2023-04-06T11:50:13;11.70;;;8.07;;
24216;SDS011;12356;49.386;8.688;2023-04-06T11:52:44;12.23;;;8.10;;
24216;SDS011;12356;49.386;8.688;2023-04-06T11:55:15;10.80;;;7.93;;
24216;SDS011;12356;49.386;8.688;2023-04-06T11:57:47;11.65;;;7.80;;
24216;SDS011;12356;49.386;8.688;2023-04-06T12:00:19;11.27;;;7.47;;
24216;SDS011;12356;49.386;8.688;2023-04-06T12:02:50;9.75;;;7.60;;
24216;SDS011;12356;49.386;8.688;2023-04-06T12:05:21;14.68;;;8.30;;
24216;SDS011;12356;49.386;8.688;2023-04-06T12:07:51;11.02;;;8.02;;
24216;SDS011;12356;49.386;8.688;2023-04-06T12:10:22;10.57;;;7.18;;
24216;SDS011;12356;49.386;8.688;2023-04-06T12:12:53;11.35;;;7.25;;
24216;SDS011;12356;49.386;8.688;2023-04-06T12:15:23;10.98;;;7.82;;
24216;SDS011;12356;49.386;8.688;2023-04-06T12:17:54;10.48;;;7.85;;
24216;SDS011;12356;49.386;8.688;2023-04-06T12:20:24;10.63;;;7.78;;
24216;SDS011;12356;49.386;8.688;2023-04-06T12:22:55;11.95;;;8.25;;
24216;SDS011;12356;49.386;8.688;2023-04-06T12:25:26;12.48;;;7.95;;
24216;SDS011;12356;49.386;8.688;2023-04-06T12:27:56;15.85;;;8.55;;
24216;SDS011;12356;49.386;8.688;2023-04-06T12:30:27;14.10;;;9.18;;
24216;SDS011;12356;49.386;8.688;2023-04-06T12:32:58;12.57;;;8.60;;
24216;SDS011;12356;49.386;8.688;2023-04-06T12:35:28;9.82;;;7.32;;
24216;SDS011;12356;49.386;8.688;2023-04-06T12:38:03;12.05;;;8.38;;
24216;SDS011;12356;49.386;8.688;2023-04-06T12:40:37;11.30;;;7.82;;
24216;SDS011;12356;49.386;8.688;2023-04-06T12:43:08;14.13;;;8.65;;
24216;SDS011;12356;49.386;8.688;2023-04-06T12:45:39;12.45;;;8.10;;
24216;SDS011;12356;49.386;8.688;2023-04-06T12:48:10;14.13;;;8.73;;
24216;SDS011;12356;49.386;8.688;2023-04-06T12:50:41;12.73;;;7.90;;
24216;SDS011;12356;49.386;8.688;2023-04-06T12:53:11;11.05;;;8.10;;
24216;SDS011;12356;49.386;8.688;2023-04-06T12:55:42;11.82;;;7.70;;
24216;SDS011;12356;49.386;8.688;2023-04-06T12:58:12;12.40;;;8.52;;
24216;SDS011;12356;49.386;8.688;2023-04-06T13:00:43;12.60;;;8.10;;
24216;SDS011;12356;49.386;8.688;2023-04-06T13:03:13;13.00;;;7.65;;
24216;SDS011;12356;49.386;8.688;2023-04-06T13:05:44;12.95;;;7.68;;
24216;SDS011;12356;49.386;8.688;2023-04-06T13:08:18;13.10;;;7.95;;
24216;SDS011;12356;49.386;8.688;2023-04-06T13:10:50;15.75;;;8.32;;
24216;SDS011;12356;49.386;8.688;2023-04-06T13:13:25;15.48;;;8.32;;
24216;SDS011;12356;49.386;8.688;2023-04-06T13:16:15;15.65;;;7.50;;
24216;SDS011;12356;49.386;8.688;2023-04-06T13:18:45;12.27;;;7.70;;
24216;SDS011;12356;49.386;8.688;2023-04-06T13:21:16;11.10;;;7.20;;
24216;SDS011;12356;49.386;8.688;2023-04-06T13:23:47;11.00;;;7.82;;
24216;SDS011;12356;49.386;8.688;2023-04-06T13:26:17;12.32;;;7.60;;
24216;SDS011;12356;49.386;8.688;2023-04-06T13:28:48;12.93;;;8.07;;
24216;SDS011;12356;49.386;8.688;2023-04-06T13:31:19;12.98;;;8.10;;
24216;SDS011;12356;49.386;8.688;2023-04-06T13:33:49;11.50;;;7.43;;
24216;SDS011;12356;49.386;8.688;2023-04-06T13:36:20;15.23;;;8.32;;
24216;SDS011;12356;49.386;8.688;2023-04-06T13:38:51;15.80;;;8.65;;
24216;SDS011;12356;49.386;8.688;2023-04-06T13:41:22;13.02;;;8.07;;
24216;SDS011;12356;49.386;8.688;2023-04-06T13:43:55;12.77;;;8.05;;
24216;SDS011;12356;49.386;8.688;2023-04-06T13:46:26;11.75;;;7.80;;
24216;SDS011;12356;49.386;8.688;2023-04-06T13:48:57;13.38;;;8.90;;
24216;SDS011;12356;49.386;8.688;2023-04-06T13:51:28;14.07;;;8.73;;
24216;SDS011;12356;49.386;8.688;2023-04-06T13:53:58;13.48;;;8.55;;
24216;SDS011;12356;49.386;8.688;2023-04-06T13:56:29;15.13;;;8.40;;
24216;SDS011;12356;49.386;8.688;2023-04-06T13:59:00;13.93;;;8.45;;
24216;SDS011;12356;49.386;8.688;2023-04-06T14:01:31;11.60;;;7.90;;
24216;SDS011;12356;49.386;8.688;2023-04-06T14:04:01;12.70;;;7.53;;
24216;SDS011;12356;49.386;8.688;2023-04-06T14:06:32;12.02;;;7.85;;
24216;SDS011;12356;49.386;8.688;2023-04-06T14:09:03;12.00;;;7.43;;
24216;SDS011;12356;49.386;8.688;2023-04-06T14:11:33;13.93;;;7.40;;
24216;SDS011;12356;49.386;8.688;2023-04-06T14:14:05;11.52;;;7.60;;
24216;SDS011;12356;49.386;8.688;2023-04-06T14:16:35;10.73;;;7.18;;
24216;SDS011;12356;49.386;8.688;2023-04-06T14:19:06;11.88;;;7.55;;
24216;SDS011;12356;49.386;8.688;2023-04-06T14:21:37;11.73;;;7.65;;
24216;SDS011;12356;49.386;8.688;2023-04-06T14:24:09;11.80;;;7.75;;
24216;SDS011;12356;49.386;8.688;2023-04-06T14:26:40;11.93;;;7.97;;
24216;SDS011;12356;49.386;8.688;2023-04-06T14:29:14;13.93;;;7.50;;
24216;SDS011;12356;49.386;8.688;2023-04-06T14:31:46;10.35;;;7.45;;
24216;SDS011;12356;49.386;8.688;2023-04-06T14:34:17;12.13;;;8.20;;
24216;SDS011;12356;49.386;8.688;2023-04-06T14:36:48;15.48;;;7.95;;
24216;SDS011;12356;49.386;8.688;2023-04-06T14:39:18;13.23;;;8.15;;
24216;SDS011;12356;49.386;8.688;2023-04-06T14:41:49;12.60;;;8.48;;
24216;SDS011;12356;49.386;8.688;2023-04-06T14:44:20;14.82;;;8.27;;
24216;SDS011;12356;49.386;8.688;2023-04-06T14:46:51;12.90;;;7.97;;
24216;SDS011;12356;49.386;8.688;2023-04-06T14:49:21;13.23;;;8.68;;
24216;SDS011;12356;49.386;8.688;2023-04-06T14:51:52;14.45;;;8.80;;
24216;SDS011;12356;49.386;8.688;2023-04-06T14:54:22;12.50;;;8.43;;
24216;SDS011;12356;49.386;8.688;2023-04-06T14:56:53;13.02;;;8.18;;